sensor_id;sensor_type;location;lat;lon;timestamp;pressure;altitude;pressure_sealevel;temperature;humidity
61697;BME280;47610;52.252;20.922;2022-12-20T00:03:51;100974.45;;;-2.03;100.00
61697;BME280;47610;52.252;20.922;2022-12-20T00:09:13;100964.46;;;-1.98;100.00
61697;BME280;47610;52.252;20.922;2022-12-20T00:14:37;100953.33;;;-1.91;100.00
61697;BME280;47610;52.252;20.922;2022-12-20T00:19:59;100950.28;;;-1.87;100.00
61697;BME280;47610;52.252;20.922;2022-12-20T00:25:24;100938.55;;;-1.82;100.00
61697;BME280;47610;52.252;20.922;2022-12-20T00:30:47;100935.42;;;-1.75;100.00
61697;BME280;47610;52.252;20.922;2022-12-20T00:36:16;100930.89;;;-1.69;100.00
61697;BME280;47610;52.252;20.922;2022-12-20T00:41:39;100934.13;;;-1.62;100.00
61697;BME280;47610;52.252;20.922;2022-12-20T00:47:02;100931.16;;;-1.55;100.00
61697;BME280;47610;52.252;20.922;2022-12-20T00:52:24;100923.27;;;-1.46;100.00
61697;BME280;47610;52.252;20.922;2022-12-20T00:57:46;100922.69;;;-1.37;100.00
61697;BME280;47610;52.252;20.922;2022-12-20T01:03:10;100922.36;;;-1.28;100.00
61697;BME280;47610;52.252;20.922;2022-12-20T01:08:32;100916.75;;;-1.22;100.00
61697;BME280;47610;52.252;20.922;2022-12-20T01:14:00;100906.35;;;-1.15;100.00
61697;BME280;47610;52.252;20.922;2022-12-20T01:19:23;100905.77;;;-1.08;100.00
61697;BME280;47610;52.252;20.922;2022-12-20T01:24:48;100902.05;;;-1.01;100.00
61697;BME280;47610;52.252;20.922;2022-12-20T01:30:15;100900.30;;;-0.94;100.00
61697;BME280;47610;52.252;20.922;2022-12-20T01:35:38;100883.73;;;-0.87;100.00
61697;BME280;47610;52.252;20.922;2022-12-20T01:40:59;100866.36;;;-0.82;100.00
61697;BME280;47610;52.252;20.922;2022-12-20T01:51:43;100851.34;;;-0.69;100.00
61697;BME280;47610;52.252;20.922;2022-12-20T01:57:09;100838.21;;;-0.67;100.00
61697;BME280;47610;52.252;20.922;2022-12-20T02:02:33;100828.33;;;-0.61;100.00
61697;BME280;47610;52.252;20.922;2022-12-20T02:07:58;100823.05;;;-0.58;100.00
61697;BME280;47610;52.252;20.922;2022-12-20T02:13:27;100824.55;;;-0.53;100.00
61697;BME280;47610;52.252;20.922;2022-12-20T02:19:00;100818.88;;;-0.47;100.00
61697;BME280;47610;52.252;20.922;2022-12-20T02:24:46;100817.17;;;-0.43;100.00
61697;BME280;47610;52.252;20.922;2022-12-20T02:30:19;100807.89;;;-0.39;100.00
61697;BME280;47610;52.252;20.922;2022-12-20T02:35:42;100806.61;;;-0.37;100.00
61697;BME280;47610;52.252;20.922;2022-12-20T02:41:08;100800.28;;;-0.33;100.00
61697;BME280;47610;52.252;20.922;2022-12-20T02:46:34;100801.36;;;-0.29;100.00
61697;BME280;47610;52.252;20.922;2022-12-20T02:51:58;100800.66;;;-0.24;100.00
61697;BME280;47610;52.252;20.922;2022-12-20T02:57:21;100796.02;;;-0.18;100.00
61697;BME280;47610;52.252;20.922;2022-12-20T03:02:48;100793.84;;;-0.17;100.00
61697;BME280;47610;52.252;20.922;2022-12-20T03:08:11;100785.31;;;-0.13;100.00
61697;BME280;47610;52.252;20.922;2022-12-20T03:13:35;100780.14;;;-0.10;100.00
61697;BME280;47610;52.252;20.922;2022-12-20T03:18:57;100778.13;;;-0.06;100.00
61697;BME280;47610;52.252;20.922;2022-12-20T03:24:20;100788.05;;;0.00;100.00
61697;BME280;47610;52.252;20.922;2022-12-20T03:29:42;100797.25;;;0.06;100.00
61697;BME280;47610;52.252;20.922;2022-12-20T03:35:08;100779.81;;;0.12;100.00
61697;BME280;47610;52.252;20.922;2022-12-20T03:40:32;100776.54;;;0.17;100.00
61697;BME280;47610;52.252;20.922;2022-12-20T03:45:56;100764.95;;;0.21;100.00
61697;BME280;47610;52.252;20.922;2022-12-20T03:51:20;100780.81;;;0.26;100.00
61697;BME280;47610;52.252;20.922;2022-12-20T03:56:43;100768.60;;;0.30;100.00
61697;BME280;47610;52.252;20.922;2022-12-20T04:07:33;100766.08;;;0.40;100.00
61697;BME280;47610;52.252;20.922;2022-12-20T04:12:57;100773.42;;;0.42;100.00
61697;BME280;47610;52.252;20.922;2022-12-20T04:18:22;100760.86;;;0.46;100.00
61697;BME280;47610;52.252;20.922;2022-12-20T04:23:46;100744.48;;;0.48;100.00
61697;BME280;47610;52.252;20.922;2022-12-20T04:29:10;100744.33;;;0.48;100.00
61697;BME280;47610;52.252;20.922;2022-12-20T04:34:32;100739.25;;;0.48;100.00
61697;BME280;47610;52.252;20.922;2022-12-20T04:39:56;100739.84;;;0.51;100.00
61697;BME280;47610;52.252;20.922;2022-12-20T04:45:19;100753.46;;;0.53;100.00
61697;BME280;47610;52.252;20.922;2022-12-20T04:50:42;100756.20;;;0.54;100.00
61697;BME280;47610;52.252;20.922;2022-12-20T04:56:06;100756.04;;;0.57;100.00
61697;BME280;47610;52.252;20.922;2022-12-20T05:01:28;100754.88;;;0.57;100.00
61697;BME280;47610;52.252;20.922;2022-12-20T05:06:51;100747.00;;;0.58;100.00
61697;BME280;47610;52.252;20.922;2022-12-20T05:12:14;100740.58;;;0.57;100.00
61697;BME280;47610;52.252;20.922;2022-12-20T05:17:36;100734.20;;;0.55;100.00
61697;BME280;47610;52.252;20.922;2022-12-20T05:23:00;100731.19;;;0.56;100.00
61697;BME280;47610;52.252;20.922;2022-12-20T05:28:23;100729.24;;;0.57;100.00
61697;BME280;47610;52.252;20.922;2022-12-20T05:33:51;100718.29;;;0.59;100.00
61697;BME280;47610;52.252;20.922;2022-12-20T05:39:13;100706.67;;;0.64;100.00
61697;BME280;47610;52.252;20.922;2022-12-20T05:44:36;100718.38;;;0.64;100.00
61697;BME280;47610;52.252;20.922;2022-12-20T05:49:58;100723.71;;;0.69;100.00
61697;BME280;47610;52.252;20.922;2022-12-20T05:55:22;100728.82;;;0.74;100.00
61697;BME280;47610;52.252;20.922;2022-12-20T06:00:46;100728.00;;;0.79;100.00
61697;BME280;47610;52.252;20.922;2022-12-20T06:06:09;100723.30;;;0.84;100.00
61697;BME280;47610;52.252;20.922;2022-12-20T06:11:31;100722.87;;;0.89;100.00
61697;BME280;47610;52.252;20.922;2022-12-20T06:16:54;100723.83;;;0.91;100.00
61697;BME280;47610;52.252;20.922;2022-12-20T06:32:28;100728.38;;;1.09;100.00
61697;BME280;47610;52.252;20.922;2022-12-20T06:37:50;100724.73;;;1.12;100.00
61697;BME280;47610;52.252;20.922;2022-12-20T06:43:12;100727.60;;;1.13;100.00
61697;BME280;47610;52.252;20.922;2022-12-20T06:48:35;100724.35;;;1.15;100.00
61697;BME280;47610;52.252;20.922;2022-12-20T06:53:59;100732.73;;;1.18;100.00
61697;BME280;47610;52.252;20.922;2022-12-20T06:59:23;100735.08;;;1.20;100.00
61697;BME280;47610;52.252;20.922;2022-12-20T07:04:45;100741.17;;;1.22;100.00
61697;BME280;47610;52.252;20.922;2022-12-20T07:10:12;100737.89;;;1.27;100.00
61697;BME280;47610;52.252;20.922;2022-12-20T07:15:34;100747.59;;;1.33;100.00
61697;BME280;47610;52.252;20.922;2022-12-20T07:21:05;100740.87;;;1.38;100.00
61697;BME280;47610;52.252;20.922;2022-12-20T07:26:29;100737.07;;;1.43;100.00
61697;BME280;47610;52.252;20.922;2022-12-20T07:31:54;100734.56;;;1.47;100.00
61697;BME280;47610;52.252;20.922;2022-12-20T07:37:17;100732.79;;;1.54;100.00
61697;BME280;47610;52.252;20.922;2022-12-20T07:42:39;100738.14;;;1.61;100.00
61697;BME280;47610;52.252;20.922;2022-12-20T07:48:03;100730.70;;;1.69;100.00
61697;BME280;47610;52.252;20.922;2022-12-20T07:53:28;100725.83;;;1.77;100.00
61697;BME280;47610;52.252;20.922;2022-12-20T07:58:56;100731.51;;;1.87;100.00
61697;BME280;47610;52.252;20.922;2022-12-20T08:04:26;100731.48;;;1.94;100.00
61697;BME280;47610;52.252;20.922;2022-12-20T08:09:51;100736.74;;;2.00;100.00
61697;BME280;47610;52.252;20.922;2022-12-20T08:15:16;100740.92;;;2.02;100.00
61697;BME280;47610;52.252;20.922;2022-12-20T08:20:40;100732.45;;;2.03;100.00
61697;BME280;47610;52.252;20.922;2022-12-20T08:26:04;100729.64;;;2.04;100.00
61697;BME280;47610;52.252;20.922;2022-12-20T08:31:27;100728.64;;;2.06;100.00
61697;BME280;47610;52.252;20.922;2022-12-20T08:36:50;100723.37;;;2.11;100.00
61697;BME280;47610;52.252;20.922;2022-12-20T08:42:12;100718.88;;;2.20;100.00
61697;BME280;47610;52.252;20.922;2022-12-20T08:52:58;100724.33;;;2.47;100.00
61697;BME280;47610;52.252;20.922;2022-12-20T08:58:21;100714.74;;;2.61;100.00
61697;BME280;47610;52.252;20.922;2022-12-20T09:03:48;100722.88;;;2.74;100.00
61697;BME280;47610;52.252;20.922;2022-12-20T09:09:11;100724.44;;;2.91;100.00
61697;BME280;47610;52.252;20.922;2022-12-20T09:14:35;100724.66;;;3.11;100.00
61697;BME280;47610;52.252;20.922;2022-12-20T09:20:01;100721.42;;;3.30;100.00
61697;BME280;47610;52.252;20.922;2022-12-20T09:25:23;100710.13;;;3.63;100.00
61697;BME280;47610;52.252;20.922;2022-12-20T09:30:46;100711.30;;;3.99;100.00
61697;BME280;47610;52.252;20.922;2022-12-20T09:36:13;100701.90;;;4.45;100.00
61697;BME280;47610;52.252;20.922;2022-12-20T09:45:31;100700.40;;;5.04;100.00
61697;BME280;47610;52.252;20.922;2022-12-20T09:51:06;100698.35;;;5.35;100.00
61697;BME280;47610;52.252;20.922;2022-12-20T09:56:34;100710.66;;;5.78;100.00
61697;BME280;47610;52.252;20.922;2022-12-20T10:01:59;100715.17;;;6.03;100.00
61697;BME280;47610;52.252;20.922;2022-12-20T10:07:34;100714.15;;;6.18;100.00
61697;BME280;47610;52.252;20.922;2022-12-20T10:13:03;100710.36;;;6.22;100.00
61697;BME280;47610;52.252;20.922;2022-12-20T10:18:45;100709.60;;;6.57;100.00
61697;BME280;47610;52.252;20.922;2022-12-20T10:27:42;100702.20;;;6.86;100.00
61697;BME280;47610;52.252;20.922;2022-12-20T10:33:17;100709.00;;;6.52;100.00
61697;BME280;47610;52.252;20.922;2022-12-20T10:38:47;100697.86;;;6.18;100.00
61697;BME280;47610;52.252;20.922;2022-12-20T10:44:17;100692.95;;;5.97;100.00
61697;BME280;47610;52.252;20.922;2022-12-20T10:49:42;100678.77;;;5.83;100.00
61697;BME280;47610;52.252;20.922;2022-12-20T10:55:36;100678.61;;;5.67;100.00
61697;BME280;47610;52.252;20.922;2022-12-20T11:01:09;100678.05;;;5.60;100.00
61697;BME280;47610;52.252;20.922;2022-12-20T11:06:46;100654.36;;;5.45;100.00
61697;BME280;47610;52.252;20.922;2022-12-20T11:12:13;100628.69;;;5.29;100.00
61697;BME280;47610;52.252;20.922;2022-12-20T11:17:39;100613.77;;;5.09;100.00
61697;BME280;47610;52.252;20.922;2022-12-20T11:23:15;100604.90;;;4.87;100.00
61697;BME280;47610;52.252;20.922;2022-12-20T11:28:54;100607.80;;;4.67;100.00
61697;BME280;47610;52.252;20.922;2022-12-20T11:34:38;100616.16;;;4.55;100.00
61697;BME280;47610;52.252;20.922;2022-12-20T11:40:29;100617.59;;;4.52;100.00
61697;BME280;47610;52.252;20.922;2022-12-20T11:46:12;100608.98;;;4.59;100.00
61697;BME280;47610;52.252;20.922;2022-12-20T11:51:45;100605.11;;;4.64;100.00
61697;BME280;47610;52.252;20.922;2022-12-20T11:57:14;100604.92;;;4.74;100.00
61697;BME280;47610;52.252;20.922;2022-12-20T12:02:46;100601.09;;;4.89;100.00
61697;BME280;47610;52.252;20.922;2022-12-20T12:08:15;100601.55;;;5.01;100.00
61697;BME280;47610;52.252;20.922;2022-12-20T12:13:40;100614.06;;;5.12;100.00
61697;BME280;47610;52.252;20.922;2022-12-20T12:19:10;100606.92;;;5.27;100.00
61697;BME280;47610;52.252;20.922;2022-12-20T12:24:44;100596.68;;;5.42;100.00
61697;BME280;47610;52.252;20.922;2022-12-20T12:30:20;100588.75;;;5.46;100.00
61697;BME280;47610;52.252;20.922;2022-12-20T12:35:54;100595.51;;;5.42;100.00
61697;BME280;47610;52.252;20.922;2022-12-20T12:46:43;100596.25;;;5.40;100.00
61697;BME280;47610;52.252;20.922;2022-12-20T12:52:22;100585.52;;;5.32;100.00
61697;BME280;47610;52.252;20.922;2022-12-20T12:58:04;100579.50;;;5.15;100.00
61697;BME280;47610;52.252;20.922;2022-12-20T13:03:45;100587.56;;;4.98;100.00
61697;BME280;47610;52.252;20.922;2022-12-20T13:09:42;100593.00;;;4.80;100.00
61697;BME280;47610;52.252;20.922;2022-12-20T13:31:32;100613.14;;;4.49;100.00
61697;BME280;47610;52.252;20.922;2022-12-20T13:37:01;100615.46;;;4.42;100.00
61697;BME280;47610;52.252;20.922;2022-12-20T13:42:38;100614.66;;;4.33;100.00
61697;BME280;47610;52.252;20.922;2022-12-20T13:48:02;100616.75;;;4.23;100.00
61697;BME280;47610;52.252;20.922;2022-12-20T13:53:26;100622.84;;;4.15;100.00
61697;BME280;47610;52.252;20.922;2022-12-20T13:58:48;100620.14;;;4.08;100.00
61697;BME280;47610;52.252;20.922;2022-12-20T14:04:10;100611.48;;;3.99;100.00
61697;BME280;47610;52.252;20.922;2022-12-20T14:09:33;100600.45;;;3.93;100.00
61697;BME280;47610;52.252;20.922;2022-12-20T14:14:54;100595.88;;;3.89;100.00
61697;BME280;47610;52.252;20.922;2022-12-20T14:20:22;100591.00;;;3.83;100.00
61697;BME280;47610;52.252;20.922;2022-12-20T14:25:47;100590.94;;;3.79;100.00
61697;BME280;47610;52.252;20.922;2022-12-20T14:31:24;100584.66;;;3.73;100.00
61697;BME280;47610;52.252;20.922;2022-12-20T14:36:47;100585.77;;;3.72;100.00
61697;BME280;47610;52.252;20.922;2022-12-20T14:42:15;100591.63;;;3.71;100.00
61697;BME280;47610;52.252;20.922;2022-12-20T14:47:40;100591.57;;;3.69;100.00
61697;BME280;47610;52.252;20.922;2022-12-20T14:53:17;100590.80;;;3.67;100.00
61697;BME280;47610;52.252;20.922;2022-12-20T14:58:39;100583.12;;;3.64;100.00
61697;BME280;47610;52.252;20.922;2022-12-20T15:04:00;100574.55;;;3.58;100.00
61697;BME280;47610;52.252;20.922;2022-12-20T15:09:21;100565.45;;;3.50;100.00
61697;BME280;47610;52.252;20.922;2022-12-20T15:14:44;100554.91;;;3.41;100.00
61697;BME280;47610;52.252;20.922;2022-12-20T15:28:24;100554.80;;;3.35;100.00
61697;BME280;47610;52.252;20.922;2022-12-20T15:33:47;100550.48;;;3.33;100.00
61697;BME280;47610;52.252;20.922;2022-12-20T15:39:12;100548.02;;;3.27;100.00
61697;BME280;47610;52.252;20.922;2022-12-20T15:44:35;100546.41;;;3.23;100.00
61697;BME280;47610;52.252;20.922;2022-12-20T15:49:58;100542.88;;;3.21;100.00
61697;BME280;47610;52.252;20.922;2022-12-20T15:55:20;100533.94;;;3.15;100.00
61697;BME280;47610;52.252;20.922;2022-12-20T16:00:42;100535.55;;;3.08;100.00
61697;BME280;47610;52.252;20.922;2022-12-20T16:06:07;100537.84;;;3.03;100.00
61697;BME280;47610;52.252;20.922;2022-12-20T16:11:29;100534.40;;;3.01;100.00
61697;BME280;47610;52.252;20.922;2022-12-20T16:16:52;100533.00;;;2.98;100.00
61697;BME280;47610;52.252;20.922;2022-12-20T16:22:18;100541.41;;;2.96;100.00
61697;BME280;47610;52.252;20.922;2022-12-20T16:27:41;100546.73;;;2.96;100.00
61697;BME280;47610;52.252;20.922;2022-12-20T16:33:03;100548.74;;;2.96;100.00
61697;BME280;47610;52.252;20.922;2022-12-20T16:38:25;100540.96;;;2.96;100.00
61697;BME280;47610;52.252;20.922;2022-12-20T16:43:48;100538.73;;;2.97;100.00
61697;BME280;47610;52.252;20.922;2022-12-20T16:49:12;100536.39;;;2.97;100.00
61697;BME280;47610;52.252;20.922;2022-12-20T16:54:34;100539.75;;;2.95;100.00
61697;BME280;47610;52.252;20.922;2022-12-20T16:59:56;100534.92;;;2.99;100.00
61697;BME280;47610;52.252;20.922;2022-12-20T17:05:28;100535.19;;;3.00;100.00
61697;BME280;47610;52.252;20.922;2022-12-20T17:10:52;100526.52;;;3.03;100.00
61697;BME280;47610;52.252;20.922;2022-12-20T17:16:15;100527.55;;;3.04;100.00
61697;BME280;47610;52.252;20.922;2022-12-20T17:21:39;100539.16;;;3.07;100.00
61697;BME280;47610;52.252;20.922;2022-12-20T17:27:03;100506.10;;;3.07;100.00
61697;BME280;47610;52.252;20.922;2022-12-20T17:32:27;100472.95;;;3.00;100.00
61697;BME280;47610;52.252;20.922;2022-12-20T17:37:48;100487.52;;;2.89;100.00
61697;BME280;47610;52.252;20.922;2022-12-20T17:47:55;100500.27;;;2.89;100.00
61697;BME280;47610;52.252;20.922;2022-12-20T17:53:18;100507.02;;;2.87;100.00
61697;BME280;47610;52.252;20.922;2022-12-20T17:58:41;100502.85;;;2.86;100.00
61697;BME280;47610;52.252;20.922;2022-12-20T18:04:07;100502.09;;;2.88;100.00
61697;BME280;47610;52.252;20.922;2022-12-20T18:09:30;100497.25;;;2.90;100.00
61697;BME280;47610;52.252;20.922;2022-12-20T18:14:52;100486.05;;;2.89;100.00
61697;BME280;47610;52.252;20.922;2022-12-20T18:20:16;100483.08;;;2.90;100.00
61697;BME280;47610;52.252;20.922;2022-12-20T18:25:38;100473.19;;;2.92;100.00
61697;BME280;47610;52.252;20.922;2022-12-20T18:31:05;100471.98;;;2.93;100.00
61697;BME280;47610;52.252;20.922;2022-12-20T18:36:31;100488.42;;;2.96;100.00
61697;BME280;47610;52.252;20.922;2022-12-20T18:41:55;100475.45;;;2.96;100.00
61697;BME280;47610;52.252;20.922;2022-12-20T18:47:18;100478.61;;;2.98;100.00
61697;BME280;47610;52.252;20.922;2022-12-20T18:52:40;100475.91;;;3.00;100.00
61697;BME280;47610;52.252;20.922;2022-12-20T18:58:03;100472.90;;;3.00;100.00
61697;BME280;47610;52.252;20.922;2022-12-20T19:03:26;100477.46;;;3.00;100.00
61697;BME280;47610;52.252;20.922;2022-12-20T19:08:51;100479.46;;;2.99;100.00
61697;BME280;47610;52.252;20.922;2022-12-20T19:14:15;100475.94;;;2.98;100.00
61697;BME280;47610;52.252;20.922;2022-12-20T19:19:38;100480.04;;;2.97;100.00
61697;BME280;47610;52.252;20.922;2022-12-20T19:25:01;100476.36;;;2.97;100.00
61697;BME280;47610;52.252;20.922;2022-12-20T19:30:24;100473.41;;;2.94;100.00
61697;BME280;47610;52.252;20.922;2022-12-20T19:35:48;100465.39;;;2.88;100.00
61697;BME280;47610;52.252;20.922;2022-12-20T19:41:16;100461.20;;;2.84;100.00
61697;BME280;47610;52.252;20.922;2022-12-20T19:46:40;100455.95;;;2.83;100.00
61697;BME280;47610;52.252;20.922;2022-12-20T19:52:06;100460.70;;;2.84;100.00
61697;BME280;47610;52.252;20.922;2022-12-20T19:57:28;100462.65;;;2.82;100.00
61697;BME280;47610;52.252;20.922;2022-12-20T20:07:34;100451.59;;;2.78;100.00
61697;BME280;47610;52.252;20.922;2022-12-20T20:12:56;100438.93;;;2.73;100.00
61697;BME280;47610;52.252;20.922;2022-12-20T20:18:18;100442.23;;;2.73;100.00
61697;BME280;47610;52.252;20.922;2022-12-20T20:23:42;100430.08;;;2.72;100.00
61697;BME280;47610;52.252;20.922;2022-12-20T20:29:05;100413.60;;;2.67;100.00
61697;BME280;47610;52.252;20.922;2022-12-20T20:34:30;100407.91;;;2.53;100.00
61697;BME280;47610;52.252;20.922;2022-12-20T20:39:55;100413.63;;;2.52;100.00
61697;BME280;47610;52.252;20.922;2022-12-20T20:45:18;100403.47;;;2.54;100.00
61697;BME280;47610;52.252;20.922;2022-12-20T20:50:41;100413.44;;;2.56;100.00
61697;BME280;47610;52.252;20.922;2022-12-20T20:56:12;100406.98;;;2.58;100.00
61697;BME280;47610;52.252;20.922;2022-12-20T21:01:34;100426.52;;;2.62;100.00
61697;BME280;47610;52.252;20.922;2022-12-20T21:06:57;100408.34;;;2.65;100.00
61697;BME280;47610;52.252;20.922;2022-12-20T21:12:19;100409.52;;;2.69;100.00
61697;BME280;47610;52.252;20.922;2022-12-20T21:17:42;100414.98;;;2.73;100.00
61697;BME280;47610;52.252;20.922;2022-12-20T21:23:05;100409.34;;;2.74;100.00
61697;BME280;47610;52.252;20.922;2022-12-20T21:28:28;100398.78;;;2.74;100.00
61697;BME280;47610;52.252;20.922;2022-12-20T21:33:54;100400.55;;;2.75;100.00
61697;BME280;47610;52.252;20.922;2022-12-20T21:39:18;100401.69;;;2.80;100.00
61697;BME280;47610;52.252;20.922;2022-12-20T21:44:40;100399.42;;;2.84;100.00
61697;BME280;47610;52.252;20.922;2022-12-20T21:50:06;100393.48;;;2.88;100.00
61697;BME280;47610;52.252;20.922;2022-12-20T21:55:29;100392.65;;;2.90;100.00
61697;BME280;47610;52.252;20.922;2022-12-20T22:00:53;100391.10;;;2.89;100.00
61697;BME280;47610;52.252;20.922;2022-12-20T22:06:19;100384.04;;;2.88;100.00
61697;BME280;47610;52.252;20.922;2022-12-20T22:11:43;100377.04;;;2.89;100.00
61697;BME280;47610;52.252;20.922;2022-12-20T22:17:07;100365.94;;;2.87;100.00
61697;BME280;47610;52.252;20.922;2022-12-20T22:27:55;100353.40;;;2.81;100.00
61697;BME280;47610;52.252;20.922;2022-12-20T22:33:18;100344.66;;;2.78;100.00
61697;BME280;47610;52.252;20.922;2022-12-20T22:38:40;100348.86;;;2.77;100.00
61697;BME280;47610;52.252;20.922;2022-12-20T22:44:04;100353.35;;;2.78;100.00
61697;BME280;47610;52.252;20.922;2022-12-20T22:49:27;100349.66;;;2.80;100.00
61697;BME280;47610;52.252;20.922;2022-12-20T22:54:50;100334.39;;;2.80;100.00
61697;BME280;47610;52.252;20.922;2022-12-20T23:00:19;100332.38;;;2.77;100.00
61697;BME280;47610;52.252;20.922;2022-12-20T23:05:52;100326.74;;;2.75;100.00
61697;BME280;47610;52.252;20.922;2022-12-20T23:11:20;100313.87;;;2.75;100.00
61697;BME280;47610;52.252;20.922;2022-12-20T23:16:43;100311.54;;;2.74;100.00
61697;BME280;47610;52.252;20.922;2022-12-20T23:22:08;100310.57;;;2.71;100.00
61697;BME280;47610;52.252;20.922;2022-12-20T23:27:30;100304.37;;;2.64;100.00
61697;BME280;47610;52.252;20.922;2022-12-20T23:32:53;100303.86;;;2.59;100.00
61697;BME280;47610;52.252;20.922;2022-12-20T23:38:16;100302.48;;;2.57;100.00
61697;BME280;47610;52.252;20.922;2022-12-20T23:43:38;100285.61;;;2.55;100.00
61697;BME280;47610;52.252;20.922;2022-12-20T23:49:01;100273.64;;;2.49;100.00
61697;BME280;47610;52.252;20.922;2022-12-20T23:54:24;100268.27;;;2.37;100.00
61697;BME280;47610;52.252;20.922;2022-12-20T23:59:47;100257.17;;;2.24;100.00
